map of BQN home
BQN - Airport
Location
City:  Aguadilla, Puerto Rico, United States
Near (Alt.):Borinquen
Name:Rafael Hernández Airport
Old (Alt.):USCG Air Station Borinquen
ICAO:TJBQ
IATA:BQN
FAA LID:BQN

Details
Type:Airport (Part 139 Class I)
Use:Public/Civil
Latitude:18°29'41"N (18.494861)
Longitude:67°07'46"W (-67.129443)
Datum:WGS 1984
Elevation:237 ft (72 m)
Variation:12.68°W (WMM2015 magnetic declination)
-0.05° annual change
Runways:1
Longest:11702 × 200 ft (3567 × 61 m), paved

Time
Time Zone:UTC-4
Local Time:

Weather
METAR:TJBQ 070650Z 11005KT 10SM SKC 23/22 A3000
TAF:TJBQ 062333Z 0700/0724 12005KT P6SM FEW030 SCT060
FM071400 07013KT P6SM SCT025 SCT080
FM072300 09005KT P6SM SCT025

Related Locations
Nearby:
Farthest:BWB: 12206 mi / 19644 km
Barrow Island, WA, AU

Find:

   beyond  
but within

Other Information
Maps:
NOTAMs:
Links:
Sources:

  
flag of United States
flag of Puerto Rico
  

Airport Diagram

Airport diagram for BQN

Airport diagram PDF

Sectional Chart

Flight Planning
at skyvector.com

Satellite Image

Google Maps Satellite view

 

Copyright © 2004-2016 Karl L. Swartz. All rights reserved.
The Great Circle Mapper name and logo are trademarks of the Great Circle Mapper.
All other trademarks mentioned herein belong to their respective owners.
Please see credits for attibutions and further copyright information.

  Follow gcmap on Facebook Follow gcmap on Twitter Follow gcmap on Google+ GCmap on LinkedIn

hCard Microformat

Geo Microformat